ZIGI LLPL-LLHZ

Flight info

Callsign ZIGI
Flight time N/A
Altitude 1200
Route /
Aircraft U60/M-S/C

Departure

Time N/A
Airport LLPL

Arrival

Time 2026-04-30 13:28
Airport Herzliya Airport (LLHZ)
Time Latitude Longitude Altitude Speed Heading
2026-04-30 12:56 31.90770 34.69895 22 ft 0 kts 98°
2026-04-30 12:58 31.90767 34.69896 22 ft 1 kts 305°
2026-04-30 13:08 31.90776 34.69891 23 ft 1 kts 340°
2026-04-30 13:09 31.90779 34.69889 26 ft 1 kts 340°
2026-04-30 13:09 31.90808 34.69873 24 ft 11 kts 332°
2026-04-30 13:09 31.90850 34.69778 25 ft 13 kts 292°
2026-04-30 13:09 31.90871 34.69689 32 ft 17 kts 232°
2026-04-30 13:10 31.90502 34.69522 272 ft 108 kts 209°
2026-04-30 13:10 31.89947 34.70327 499 ft 139 kts 104°
2026-04-30 13:10 31.89504 34.71317 731 ft 140 kts 105°
2026-04-30 13:10 31.89235 34.72445 684 ft 137 kts 103°
2026-04-30 13:11 31.89028 34.73459 804 ft 126 kts 98°
2026-04-30 13:11 31.88880 34.74488 1012 ft 128 kts 85°
2026-04-30 13:11 31.89349 34.75414 1084 ft 136 kts 45°
2026-04-30 13:11 31.90110 34.76070 1189 ft 139 kts 27°
2026-04-30 13:12 31.90960 34.76602 1129 ft 136 kts 21°
2026-04-30 13:12 31.91781 34.76973 1307 ft 116 kts 17°
2026-04-30 13:12 31.92538 34.77279 1276 ft 119 kts 18°
2026-04-30 13:13 31.94216 34.78055 1212 ft 167 kts 15°
2026-04-30 13:13 31.95358 34.78445 1237 ft 171 kts
2026-04-30 13:13 31.97525 34.79192 1170 ft 158 kts 19°
2026-04-30 13:14 31.98497 34.79632 1047 ft 131 kts 15°
2026-04-30 13:14 31.99273 34.80065 1247 ft 130 kts 19°
2026-04-30 13:14 32.01035 34.80464 1305 ft 134 kts
2026-04-30 13:15 32.02002 34.80629 1132 ft 146 kts
2026-04-30 13:15 32.03989 34.80850 1075 ft 140 kts 359°
2026-04-30 13:15 32.04931 34.81052 1095 ft 143 kts 22°
2026-04-30 13:16 32.05109 34.82277 1075 ft 179 kts 111°
2026-04-30 13:16 32.04783 34.83540 1235 ft 157 kts 93°
2026-04-30 13:16 32.04598 34.84763 1145 ft 144 kts 98°
2026-04-30 13:17 32.04038 34.86772 1413 ft 130 kts 105°
2026-04-30 13:17 32.03806 34.88125 1349 ft 202 kts 100°
2026-04-30 13:17 32.02398 34.90914 1261 ft 200 kts 132°
2026-04-30 13:18 32.01198 34.91082 812 ft 152 kts 195°
2026-04-30 13:18 31.99621 34.90172 571 ft 151 kts 277°
2026-04-30 13:18 32.00171 34.89087 138 ft 144 kts 304°
2026-04-30 13:19 32.00772 34.88177 400 ft 148 kts 327°
2026-04-30 13:19 32.01823 34.88079 836 ft 146 kts 350°
2026-04-30 13:19 32.02705 34.87531 1222 ft 145 kts 328°
2026-04-30 13:19 32.03617 34.87069 1355 ft 139 kts 336°
2026-04-30 13:20 32.04454 34.86594 1217 ft 129 kts 329°
2026-04-30 13:20 32.05303 34.85937 1351 ft 160 kts 323°
2026-04-30 13:20 32.06360 34.85299 1078 ft 178 kts 341°
2026-04-30 13:20 32.07502 34.84984 1312 ft 161 kts 351°
2026-04-30 13:21 32.08633 34.84783 1146 ft 171 kts 349°
2026-04-30 13:21 32.09822 34.84647 1066 ft 171 kts 341°
2026-04-30 13:21 32.10276 34.83462 691 ft 167 kts 281°
2026-04-30 13:22 32.11060 34.81168 615 ft 160 kts 331°
2026-04-30 13:22 32.12110 34.81092 798 ft 136 kts 355°
2026-04-30 13:22 32.13978 34.80991 570 ft 131 kts 356°
2026-04-30 13:23 32.14901 34.81235 573 ft 138 kts 13°
2026-04-30 13:23 32.16742 34.81960 460 ft 141 kts 18°
2026-04-30 13:24 32.17758 34.82661 635 ft 79 kts 57°
2026-04-30 13:24 32.18369 34.82416 536 ft 118 kts 306°
2026-04-30 13:25 32.18741 34.80501 455 ft 137 kts 243°
2026-04-30 13:25 32.16709 34.79715 225 ft 160 kts 207°
2026-04-30 13:26 32.13793 34.78986 913 ft 139 kts 181°
2026-04-30 13:26 32.11769 34.79313 883 ft 151 kts 183°
2026-04-30 13:27 32.09858 34.79400 1408 ft 134 kts 185°
2026-04-30 13:28 32.07910 34.78808 1237 ft 56 kts 180°
2026-04-30 13:28 32.07523 34.78977 409 ft 2 kts 88°
2026-04-30 13:28 32.07524 34.78983 399 ft 0 kts 81°
2026-04-30 13:29 32.07521 34.78983 399 ft 0 kts 273°
2026-04-30 13:30 32.07854 34.77742 574 ft 110 kts 292°
2026-04-30 13:31 32.07690 34.76706 431 ft 30 kts 81°
2026-04-30 13:31 32.05592 34.75182 105 ft 190 kts 225°
2026-04-30 13:32 32.03085 34.74074 78 ft 193 kts 216°
2026-04-30 13:32 32.01337 34.73567 819 ft 124 kts 205°
2026-04-30 13:33 31.99038 34.73952 1023 ft 191 kts 149°
2026-04-30 13:33 31.97081 34.75890 959 ft 184 kts 167°
2026-04-30 13:34 31.96057 34.76767 903 ft 192 kts 130°
2026-04-30 13:34 31.93866 34.76882 917 ft 157 kts 238°
2026-04-30 13:35 31.93274 34.75615 475 ft 192 kts 252°
2026-04-30 13:35 31.92592 34.72948 860 ft 136 kts 208°
2026-04-30 13:36 31.91915 34.70319 298 ft 169 kts 225°
2026-04-30 13:36 31.91043 34.69770 47 ft 109 kts 212°
2026-04-30 13:36 31.90568 34.69815 68 ft 58 kts 37°
2026-04-30 13:37 31.90713 34.69884 21 ft 0 kts 206°